Time;durP1;ratioP1;P1;durP2;ratioP2;P2;SDS_P1;SDS_P2;PMS_P1;PMS_P2;Temp;Humidity;BMP_temperature;BMP_pressure;BME280_temperature;BME280_humidity;BME280_pressure;Samples;Min_cycle;Max_cycle;Signal;HPM_P1;HPM_P2
2021/05/23 00:01:11;;;;;;;;;;;18.70;50.10;;;;;;460782;258;1200;-45
2021/05/23 00:03:12;;;;;;;;;;;18.60;50.20;;;;;;460561;258;1092;-45
2021/05/23 00:05:14;;;;;;;;;;;18.60;50.30;;;;;;463443;257;1066;-44
2021/05/23 00:07:15;;;;;;;;;;;18.60;50.40;;;;;;463382;255;2191;-45
2021/05/23 00:09:16;;;;;;;;;;;18.60;50.50;;;;;;463172;257;1075;-44
2021/05/23 00:11:17;;;;;;;;;;;18.60;50.40;;;;;;463170;255;1273;-44
2021/05/23 00:13:19;;;;;;;;;;;18.60;50.40;;;;;;463217;255;1166;-44
2021/05/23 00:15:20;;;;;;;;;;;18.50;50.40;;;;;;463217;255;1076;-44
2021/05/23 00:17:21;;;;;;;;;;;18.60;50.50;;;;;;463203;255;1266;-44
2021/05/23 00:19:23;;;;;;;;;;;18.60;50.40;;;;;;463588;255;1085;-44
2021/05/23 00:21:26;;;;;;;;;;;18.60;50.30;;;;;;463588;255;1509;-44
2021/05/23 00:23:25;;;;;;;;;;;18.60;50.30;;;;;;463530;256;1802;-44
2021/05/23 00:25:27;;;;;;;;;;;18.60;50.30;;;;;;463447;255;1074;-45
2021/05/23 00:27:28;;;;;;;;;;;18.60;50.40;;;;;;463147;255;2206;-44
2021/05/23 00:29:29;;;;;;;;;;;18.60;50.30;;;;;;463188;255;1087;-44
2021/05/23 00:31:31;;;;;;;;;;;18.60;50.30;;;;;;460514;257;1302;-44
2021/05/23 00:33:32;;;;;;;;;;;18.60;50.30;;;;;;463102;257;1276;-44
2021/05/23 00:35:33;;;;;;;;;;;18.60;50.40;;;;;;460956;257;1086;-44
2021/05/23 00:37:34;;;;;;;;;;;18.50;50.30;;;;;;462281;257;1422;-45
2021/05/23 00:39:36;;;;;;;;;;;18.50;50.30;;;;;;461933;256;1122;-45
2021/05/23 00:41:37;;;;;;;;;;;18.50;50.40;;;;;;460693;256;1067;-45
2021/05/23 00:43:38;;;;;;;;;;;18.50;50.40;;;;;;461968;257;1198;-44
2021/05/23 00:45:40;;;;;;;;;;;18.50;50.40;;;;;;461841;256;1128;-44
2021/05/23 00:47:41;;;;;;;;;;;18.50;50.40;;;;;;461890;256;2211;-44
2021/05/23 00:49:42;;;;;;;;;;;18.50;50.40;;;;;;460688;256;1050;-44
2021/05/23 00:51:43;;;;;;;;;;;18.40;50.40;;;;;;462260;255;1037;-44
2021/05/23 00:53:45;;;;;;;;;;;18.40;50.40;;;;;;462056;256;1245;-45
2021/05/23 00:55:46;;;;;;;;;;;18.60;50.30;;;;;;461140;256;1059;-44
2021/05/23 00:57:47;;;;;;;;;;;19.00;49.20;;;;;;460778;258;1165;-45
2021/05/23 00:59:49;;;;;;;;;;;19.50;48.00;;;;;;462135;257;1119;-45
2021/05/23 01:01:50;;;;;;;;;;;19.80;47.10;;;;;;462109;256;1074;-45
2021/05/23 01:03:52;;;;;;;;;;;20.00;46.50;;;;;;461825;256;1091;-44
2021/05/23 01:05:53;;;;;;;;;;;20.10;46.10;;;;;;462233;256;1157;-44
2021/05/23 01:07:54;;;;;;;;;;;20.30;45.90;;;;;;460649;259;2161;-45
2021/05/23 01:09:56;;;;;;;;;;;20.40;45.70;;;;;;463286;257;1073;-45
2021/05/23 01:11:57;;;;;;;;;;;20.50;45.40;;;;;;460748;257;1358;-45
2021/05/23 01:13:58;;;;;;;;;;;20.60;45.30;;;;;;463224;257;1167;-45
2021/05/23 01:16:00;;;;;;;;;;;20.60;45.10;;;;;;463427;255;1101;-45
2021/05/23 01:18:01;;;;;;;;;;;20.70;44.90;;;;;;463243;255;1053;-45
2021/05/23 01:20:02;;;;;;;;;;;20.70;44.80;;;;;;460958;256;1085;-44
2021/05/23 01:22:04;;;;;;;;;;;20.80;44.70;;;;;;461994;257;1271;-45
2021/05/23 01:24:05;;;;;;;;;;;20.80;44.60;;;;;;462016;256;1129;-45
2021/05/23 01:26:07;;;;;;;;;;;20.90;44.50;;;;;;460638;256;1223;-45
2021/05/23 01:28:08;;;;;;;;;;;20.90;44.40;;;;;;463073;257;2345;-45
2021/05/23 01:30:09;;;;;;;;;;;21.00;44.40;;;;;;463162;255;1155;-45
2021/05/23 01:32:12;;;;;;;;;;;21.00;44.30;;;;;;460489;257;1088;-45
2021/05/23 01:34:12;;;;;;;;;;;21.00;44.20;;;;;;463086;257;2216;-45
2021/05/23 01:36:13;;;;;;;;;;;21.10;44.20;;;;;;463419;255;1063;-45
2021/05/23 01:38:15;;;;;;;;;;;21.10;44.00;;;;;;460541;257;1198;-45
2021/05/23 01:40:16;;;;;;;;;;;21.20;44.00;;;;;;460916;258;1265;-45
2021/05/23 01:42:17;;;;;;;;;;;21.20;43.90;;;;;;460553;259;1180;-45
2021/05/23 01:44:18;;;;;;;;;;;21.20;43.80;;;;;;460615;258;1248;-45
2021/05/23 01:46:20;;;;;;;;;;;21.30;43.80;;;;;;462230;257;1462;-45
2021/05/23 01:48:21;;;;;;;;;;;21.30;43.80;;;;;;460817;256;2172;-45
2021/05/23 01:50:23;;;;;;;;;;;21.30;43.70;;;;;;462162;257;1110;-45
2021/05/23 01:52:24;;;;;;;;;;;21.30;43.60;;;;;;461842;256;2341;-45
2021/05/23 01:54:25;;;;;;;;;;;21.40;43.50;;;;;;461799;256;1213;-45
2021/05/23 01:56:26;;;;;;;;;;;21.40;43.50;;;;;;461873;256;1595;-44
2021/05/23 01:58:27;;;;;;;;;;;21.40;43.50;;;;;;462025;256;1269;-44
2021/05/23 02:00:29;;;;;;;;;;;21.40;43.50;;;;;;461993;256;1081;-45
2021/05/23 02:02:30;;;;;;;;;;;21.40;43.40;;;;;;467858;254;1691;-45
2021/05/23 02:04:31;;;;;;;;;;;21.50;43.30;;;;;;462285;257;1256;-45
2021/05/23 02:06:33;;;;;;;;;;;21.50;43.30;;;;;;461818;256;1408;-45
2021/05/23 02:08:34;;;;;;;;;;;21.50;43.30;;;;;;461917;256;2215;-45
2021/05/23 02:10:35;;;;;;;;;;;21.50;43.20;;;;;;462123;256;1339;-45
2021/05/23 02:12:37;;;;;;;;;;;21.60;43.30;;;;;;461834;256;1294;-45
2021/05/23 02:14:38;;;;;;;;;;;21.60;43.20;;;;;;460753;256;1165;-45
2021/05/23 02:16:39;;;;;;;;;;;21.60;43.20;;;;;;462004;257;1297;-45
2021/05/23 02:18:40;;;;;;;;;;;21.60;43.30;;;;;;460597;256;1115;-45
2021/05/23 02:20:42;;;;;;;;;;;21.50;43.30;;;;;;460872;258;1108;-45
2021/05/23 02:22:43;;;;;;;;;;;21.10;44.30;;;;;;460642;258;1102;-44
2021/05/23 02:24:44;;;;;;;;;;;20.50;45.50;;;;;;461930;257;1062;-45
2021/05/23 02:26:46;;;;;;;;;;;20.20;46.30;;;;;;461902;256;1105;-44
2021/05/23 02:28:47;;;;;;;;;;;20.00;46.90;;;;;;460670;256;2165;-45
2021/05/23 02:30:49;;;;;;;;;;;19.80;47.30;;;;;;461860;256;1113;-44
2021/05/23 02:32:49;;;;;;;;;;;19.70;47.80;;;;;;467969;253;1661;-44
2021/05/23 02:34:51;;;;;;;;;;;19.60;48.10;;;;;;462279;257;1109;-44
2021/05/23 02:36:52;;;;;;;;;;;19.50;48.30;;;;;;460871;257;1061;-45
2021/05/23 02:38:54;;;;;;;;;;;19.40;48.50;;;;;;463222;257;1068;-45
2021/05/23 02:40:56;;;;;;;;;;;19.30;48.80;;;;;;460592;257;1046;-44
2021/05/23 02:42:56;;;;;;;;;;;19.30;49.00;;;;;;462097;257;2047;-45
2021/05/23 02:44:57;;;;;;;;;;;19.20;49.00;;;;;;461856;256;1207;-44
2021/05/23 02:46:59;;;;;;;;;;;19.20;49.10;;;;;;462112;256;1119;-44
2021/05/23 02:49:00;;;;;;;;;;;19.10;49.20;;;;;;467597;254;2422;-44
2021/05/23 02:51:02;;;;;;;;;;;19.10;49.30;;;;;;461823;257;1161;-44
2021/05/23 02:53:05;;;;;;;;;;;19.00;49.40;;;;;;462017;256;2004;-44
2021/05/23 02:55:05;;;;;;;;;;;19.00;49.50;;;;;;461661;256;2083;-44
2021/05/23 02:57:05;;;;;;;;;;;19.00;49.60;;;;;;461835;256;2379;-44
2021/05/23 02:59:06;;;;;;;;;;;19.00;49.60;;;;;;460766;256;1300;-44
2021/05/23 03:01:08;;;;;;;;;;;18.90;49.60;;;;;;462032;257;1183;-44
2021/05/23 03:03:09;;;;;;;;;;;18.90;49.70;;;;;;461833;256;1124;-45
2021/05/23 03:05:10;;;;;;;;;;;18.90;49.70;;;;;;467821;254;1078;-44
2021/05/23 03:07:12;;;;;;;;;;;18.90;49.70;;;;;;462077;257;1196;-45
2021/05/23 03:09:13;;;;;;;;;;;18.90;49.70;;;;;;462246;256;2200;-45
2021/05/23 03:11:14;;;;;;;;;;;18.90;49.80;;;;;;461730;256;1331;-44
2021/05/23 03:13:16;;;;;;;;;;;18.90;49.90;;;;;;460836;259;1103;-44
2021/05/23 03:15:17;;;;;;;;;;;18.80;49.90;;;;;;463139;257;1150;-44
2021/05/23 03:17:18;;;;;;;;;;;18.80;50.00;;;;;;461834;256;1264;-45
2021/05/23 03:19:20;;;;;;;;;;;18.80;50.00;;;;;;461906;256;1308;-44
2021/05/23 03:21:21;;;;;;;;;;;18.80;50.00;;;;;;461921;256;1731;-45
2021/05/23 03:23:22;;;;;;;;;;;18.80;49.90;;;;;;462400;255;1178;-45
2021/05/23 03:25:24;;;;;;;;;;;18.80;50.10;;;;;;462321;256;1143;-45
2021/05/23 03:27:25;;;;;;;;;;;18.80;50.00;;;;;;462304;255;1187;-45
2021/05/23 03:29:26;;;;;;;;;;;18.80;50.10;;;;;;462134;255;2215;-45
2021/05/23 03:31:27;;;;;;;;;;;18.70;50.20;;;;;;461028;257;1180;-44
2021/05/23 03:33:29;;;;;;;;;;;18.70;50.20;;;;;;460588;258;1100;-45
2021/05/23 03:35:30;;;;;;;;;;;18.70;50.10;;;;;;462116;257;1072;-44
2021/05/23 03:37:31;;;;;;;;;;;18.70;50.20;;;;;;461804;256;1152;-44
2021/05/23 03:39:33;;;;;;;;;;;18.70;50.10;;;;;;461137;256;1228;-44
2021/05/23 03:41:34;;;;;;;;;;;18.70;50.10;;;;;;463257;257;1393;-44
2021/05/23 03:43:35;;;;;;;;;;;18.70;50.30;;;;;;463145;256;1060;-45
2021/05/23 03:45:37;;;;;;;;;;;18.70;50.30;;;;;;460623;257;1152;-44
2021/05/23 03:47:38;;;;;;;;;;;18.70;50.30;;;;;;463541;257;1199;-44
2021/05/23 03:49:39;;;;;;;;;;;18.60;50.30;;;;;;463624;255;2218;-44
2021/05/23 03:51:41;;;;;;;;;;;18.60;50.30;;;;;;463509;256;1077;-44
2021/05/23 03:53:42;;;;;;;;;;;18.60;50.30;;;;;;463174;257;2468;-44
2021/05/23 03:55:43;;;;;;;;;;;18.60;50.30;;;;;;463243;255;1053;-45
2021/05/23 03:57:44;;;;;;;;;;;18.70;50.30;;;;;;460956;257;1087;-44
2021/05/23 03:59:45;;;;;;;;;;;18.60;50.20;;;;;;460674;258;1312;-45
2021/05/23 04:01:47;;;;;;;;;;;18.60;50.30;;;;;;462114;257;1221;-44
2021/05/23 04:03:48;;;;;;;;;;;18.60;50.30;;;;;;460503;256;1148;-44
2021/05/23 04:05:49;;;;;;;;;;;18.60;50.20;;;;;;463544;257;1171;-45
2021/05/23 04:07:51;;;;;;;;;;;18.60;50.20;;;;;;463214;255;2203;-44
2021/05/23 04:09:53;;;;;;;;;;;18.60;50.20;;;;;;463139;255;1075;-45
2021/05/23 04:11:53;;;;;;;;;;;18.60;50.20;;;;;;460530;257;2340;-44
2021/05/23 04:13:54;;;;;;;;;;;18.60;50.30;;;;;;463321;257;1161;-45
2021/05/23 04:15:56;;;;;;;;;;;18.60;50.20;;;;;;463225;255;1319;-44
2021/05/23 04:17:57;;;;;;;;;;;18.60;50.30;;;;;;463650;255;1177;-44
2021/05/23 04:19:58;;;;;;;;;;;18.60;50.40;;;;;;460889;257;1113;-44
2021/05/23 04:22:00;;;;;;;;;;;18.60;50.40;;;;;;460737;258;1176;-44
2021/05/23 04:24:01;;;;;;;;;;;18.50;50.50;;;;;;461007;258;1075;-44
2021/05/23 04:26:02;;;;;;;;;;;18.50;50.40;;;;;;460594;259;1174;-44
2021/05/23 04:28:03;;;;;;;;;;;18.60;50.40;;;;;;460729;258;2204;-44
2021/05/23 04:30:05;;;;;;;;;;;18.50;50.40;;;;;;463492;256;1254;-44
2021/05/23 04:32:06;;;;;;;;;;;18.50;50.50;;;;;;460872;257;1474;-44
2021/05/23 04:34:07;;;;;;;;;;;18.50;50.50;;;;;;460947;258;1120;-44
2021/05/23 04:36:09;;;;;;;;;;;18.50;50.50;;;;;;462273;256;1073;-44
2021/05/23 04:38:10;;;;;;;;;;;18.60;50.40;;;;;;460942;256;1216;-44
2021/05/23 04:40:11;;;;;;;;;;;18.50;50.40;;;;;;462122;256;1094;-44
2021/05/23 04:42:12;;;;;;;;;;;18.50;50.40;;;;;;462034;256;1172;-44
2021/05/23 04:44:14;;;;;;;;;;;18.50;50.50;;;;;;468229;254;1217;-44
2021/05/23 04:46:15;;;;;;;;;;;18.50;50.40;;;;;;461862;257;1187;-44
2021/05/23 04:48:16;;;;;;;;;;;18.50;50.50;;;;;;461876;256;2208;-44
2021/05/23 04:50:18;;;;;;;;;;;18.50;50.60;;;;;;460672;256;1061;-44
2021/05/23 04:52:19;;;;;;;;;;;18.40;50.50;;;;;;460803;258;1169;-44
2021/05/23 04:54:20;;;;;;;;;;;18.40;50.60;;;;;;462337;257;1097;-44
2021/05/23 04:56:21;;;;;;;;;;;18.40;50.60;;;;;;461857;256;1141;-45
2021/05/23 04:58:23;;;;;;;;;;;18.40;50.60;;;;;;460621;256;1099;-44
2021/05/23 05:00:24;;;;;;;;;;;18.40;50.60;;;;;;463369;257;1279;-45
2021/05/23 05:02:25;;;;;;;;;;;18.40;50.60;;;;;;463149;255;1231;-44
2021/05/23 05:04:26;;;;;;;;;;;18.60;50.30;;;;;;463191;256;1200;-45
2021/05/23 05:06:28;;;;;;;;;;;19.10;49.00;;;;;;463101;255;1437;-45
2021/05/23 05:08:29;;;;;;;;;;;19.50;47.70;;;;;;460669;257;2153;-45
2021/05/23 05:10:30;;;;;;;;;;;19.80;47.00;;;;;;463114;257;1195;-45
2021/05/23 05:12:32;;;;;;;;;;;20.00;46.50;;;;;;461017;257;1295;-45
2021/05/23 05:14:33;;;;;;;;;;;20.20;46.20;;;;;;460729;258;1180;-45
2021/05/23 05:16:34;;;;;;;;;;;20.30;45.80;;;;;;460684;258;1346;-45
2021/05/23 05:18:35;;;;;;;;;;;20.40;45.70;;;;;;460597;259;1155;-45
2021/05/23 05:20:37;;;;;;;;;;;20.50;45.50;;;;;;462210;257;1237;-45
2021/05/23 05:22:38;;;;;;;;;;;20.50;45.30;;;;;;461816;256;1472;-44
2021/05/23 05:24:39;;;;;;;;;;;20.60;45.20;;;;;;461838;256;1144;-45
2021/05/23 05:26:41;;;;;;;;;;;20.60;45.00;;;;;;460800;256;1299;-44
2021/05/23 05:28:42;;;;;;;;;;;20.70;44.90;;;;;;462289;256;2156;-45
2021/05/23 05:30:43;;;;;;;;;;;20.80;44.80;;;;;;460488;258;2114;-45
2021/05/23 05:32:44;;;;;;;;;;;20.80;44.70;;;;;;463122;257;1531;-45
2021/05/23 05:34:46;;;;;;;;;;;20.90;44.60;;;;;;463195;257;1149;-45
2021/05/23 05:36:47;;;;;;;;;;;20.90;44.50;;;;;;463472;257;1508;-45
2021/05/23 05:38:49;;;;;;;;;;;21.00;44.50;;;;;;463600;257;1074;-45
2021/05/23 05:40:50;;;;;;;;;;;21.00;44.40;;;;;;463158;255;1220;-45
2021/05/23 05:42:51;;;;;;;;;;;21.00;44.30;;;;;;463378;255;1115;-45
2021/05/23 05:44:53;;;;;;;;;;;21.10;44.20;;;;;;463180;255;1081;-44
2021/05/23 05:46:54;;;;;;;;;;;21.10;44.10;;;;;;460608;257;1497;-45
2021/05/23 05:48:55;;;;;;;;;;;21.20;44.10;;;;;;460931;258;2237;-45
2021/05/23 05:50:56;;;;;;;;;;;21.20;44.00;;;;;;461906;257;1385;-45
2021/05/23 05:52:58;;;;;;;;;;;21.20;44.00;;;;;;462097;256;1369;-44
2021/05/23 05:54:59;;;;;;;;;;;21.20;43.90;;;;;;468114;252;1129;-44
2021/05/23 05:57:00;;;;;;;;;;;21.20;43.80;;;;;;470234;253;1189;-45
2021/05/23 05:59:02;;;;;;;;;;;21.30;43.80;;;;;;460985;256;1093;-45
2021/05/23 06:01:03;;;;;;;;;;;21.30;43.70;;;;;;463121;257;1583;-45
2021/05/23 06:03:04;;;;;;;;;;;21.40;43.70;;;;;;460544;257;1269;-45
2021/05/23 06:05:05;;;;;;;;;;;21.40;43.70;;;;;;461945;257;1113;-45
2021/05/23 06:07:07;;;;;;;;;;;21.40;43.60;;;;;;461864;256;1512;-45
2021/05/23 06:09:08;;;;;;;;;;;21.40;43.60;;;;;;460675;256;2153;-45
2021/05/23 06:11:09;;;;;;;;;;;21.40;43.60;;;;;;463377;257;1363;-45
2021/05/23 06:13:10;;;;;;;;;;;21.50;43.60;;;;;;463625;255;1200;-45
2021/05/23 06:15:12;;;;;;;;;;;21.50;43.50;;;;;;463184;256;1071;-45
2021/05/23 06:17:13;;;;;;;;;;;21.50;43.50;;;;;;460538;257;1295;-45
2021/05/23 06:19:14;;;;;;;;;;;21.50;43.50;;;;;;460629;258;1216;-45
2021/05/23 06:21:16;;;;;;;;;;;21.50;43.50;;;;;;460643;258;1336;-45
2021/05/23 06:23:17;;;;;;;;;;;21.50;43.40;;;;;;463110;257;1254;-45
2021/05/23 06:25:18;;;;;;;;;;;21.60;43.40;;;;;;463582;256;1104;-45
2021/05/23 06:27:19;;;;;;;;;;;21.60;43.30;;;;;;463127;255;1498;-45
2021/05/23 06:29:21;;;;;;;;;;;21.60;43.40;;;;;;463384;256;2192;-45
2021/05/23 06:31:22;;;;;;;;;;;21.60;43.30;;;;;;463167;255;1497;-45
2021/05/23 06:33:23;;;;;;;;;;;21.60;43.40;;;;;;463360;256;1217;-45
2021/05/23 06:35:25;;;;;;;;;;;21.60;43.40;;;;;;460825;257;1175;-45
2021/05/23 06:37:26;;;;;;;;;;;21.50;43.50;;;;;;462189;257;1247;-45
2021/05/23 06:39:27;;;;;;;;;;;21.10;44.40;;;;;;460743;256;1104;-45
2021/05/23 06:41:28;;;;;;;;;;;20.60;45.60;;;;;;460664;258;1511;-45
2021/05/23 06:43:30;;;;;;;;;;;20.30;46.50;;;;;;463119;257;1121;-44
2021/05/23 06:45:31;;;;;;;;;;;20.00;47.10;;;;;;463380;256;1120;-45
2021/05/23 06:47:32;;;;;;;;;;;19.80;47.50;;;;;;463199;256;1228;-44
2021/05/23 06:49:34;;;;;;;;;;;19.70;47.90;;;;;;463488;255;2165;-44
2021/05/23 06:51:35;;;;;;;;;;;19.60;48.20;;;;;;463207;257;1318;-44
2021/05/23 06:53:39;;;;;;;;;;;19.50;48.40;;;;;;460616;257;1121;-45
2021/05/23 06:55:39;;;;;;;;;;;19.40;48.60;;;;;;463190;257;2291;-44
2021/05/23 06:57:40;;;;;;;;;;;19.40;48.70;;;;;;463225;255;1198;-45
2021/05/23 06:59:42;;;;;;;;;;;19.30;48.80;;;;;;463236;257;1079;-44
2021/05/23 07:01:43;;;;;;;;;;;19.30;49.00;;;;;;460715;257;1330;-45
2021/05/23 07:03:44;;;;;;;;;;;19.20;49.00;;;;;;460526;259;1100;-45
2021/05/23 07:05:45;;;;;;;;;;;19.20;49.20;;;;;;460763;258;1096;-45
2021/05/23 07:07:47;;;;;;;;;;;19.10;49.30;;;;;;461890;257;1103;-44
2021/05/23 07:09:48;;;;;;;;;;;19.10;49.40;;;;;;460945;256;2162;-45
2021/05/23 07:11:50;;;;;;;;;;;19.00;49.50;;;;;;460522;259;1254;-45
2021/05/23 07:13:51;;;;;;;;;;;19.00;49.60;;;;;;460665;258;1122;-45
2021/05/23 07:15:52;;;;;;;;;;;19.00;49.60;;;;;;460650;257;1108;-45
2021/05/23 07:17:57;;;;;;;;;;;19.00;49.70;;;;;;463261;257;1209;-45
2021/05/23 07:19:55;;;;;;;;;;;19.00;49.70;;;;;;460882;258;2454;-44
2021/05/23 07:21:56;;;;;;;;;;;19.00;49.70;;;;;;463254;257;1107;-44
2021/05/23 07:23:58;;;;;;;;;;;18.90;49.80;;;;;;461035;257;1094;-45
2021/05/23 07:25:59;;;;;;;;;;;18.90;49.90;;;;;;463542;257;1087;-45
2021/05/23 07:28:00;;;;;;;;;;;18.90;50.00;;;;;;460692;257;1120;-44
2021/05/23 07:30:01;;;;;;;;;;;18.90;50.00;;;;;;460990;258;2196;-44
2021/05/23 07:32:03;;;;;;;;;;;18.80;50.10;;;;;;460766;258;1314;-45
2021/05/23 07:34:04;;;;;;;;;;;18.80;50.00;;;;;;460978;258;1119;-45
2021/05/23 07:36:06;;;;;;;;;;;18.80;50.10;;;;;;463255;257;1077;-44
2021/05/23 07:38:07;;;;;;;;;;;18.80;50.10;;;;;;463178;256;2308;-44
2021/05/23 07:40:08;;;;;;;;;;;18.70;50.20;;;;;;463143;256;1088;-44
2021/05/23 07:42:10;;;;;;;;;;;18.70;50.20;;;;;;463157;255;1132;-44
2021/05/23 07:44:11;;;;;;;;;;;18.80;50.20;;;;;;460950;257;1052;-44
2021/05/23 07:46:12;;;;;;;;;;;18.80;50.10;;;;;;463345;257;1339;-44
2021/05/23 07:48:13;;;;;;;;;;;18.80;50.10;;;;;;463209;256;1244;-44
2021/05/23 07:50:15;;;;;;;;;;;18.80;50.10;;;;;;463671;255;2207;-44
2021/05/23 07:52:16;;;;;;;;;;;18.80;50.10;;;;;;463208;255;1219;-44
2021/05/23 07:54:17;;;;;;;;;;;18.70;50.20;;;;;;461032;257;1055;-44
2021/05/23 07:56:18;;;;;;;;;;;18.70;50.20;;;;;;463616;257;1153;-44
2021/05/23 07:58:22;;;;;;;;;;;18.70;50.30;;;;;;463206;256;1248;-44
2021/05/23 08:00:21;;;;;;;;;;;18.70;50.40;;;;;;460786;258;1521;-44
2021/05/23 08:02:22;;;;;;;;;;;18.70;50.30;;;;;;463282;257;1337;-44
2021/05/23 08:04:24;;;;;;;;;;;18.70;50.40;;;;;;463565;256;1093;-44
2021/05/23 08:06:25;;;;;;;;;;;18.60;50.30;;;;;;463505;255;1087;-45
2021/05/23 08:08:26;;;;;;;;;;;18.60;50.30;;;;;;463418;255;1012;-44
2021/05/23 08:10:28;;;;;;;;;;;18.70;50.30;;;;;;460861;257;2161;-44
2021/05/23 08:12:29;;;;;;;;;;;18.70;50.20;;;;;;462032;257;1198;-45
2021/05/23 08:14:30;;;;;;;;;;;18.70;50.30;;;;;;462256;256;1111;-44
2021/05/23 08:16:32;;;;;;;;;;;18.70;50.30;;;;;;467926;253;1137;-44
2021/05/23 08:18:33;;;;;;;;;;;18.60;50.40;;;;;;460235;259;1149;-45
2021/05/23 08:20:34;;;;;;;;;;;18.60;50.40;;;;;;462298;257;1436;-45
2021/05/23 08:22:35;;;;;;;;;;;18.60;50.50;;;;;;460642;256;1183;-45
2021/05/23 08:24:37;;;;;;;;;;;18.60;50.40;;;;;;461933;257;1074;-44
2021/05/23 08:26:38;;;;;;;;;;;18.60;50.40;;;;;;462261;256;1353;-44
2021/05/23 08:28:39;;;;;;;;;;;18.60;50.40;;;;;;462235;256;1097;-45
2021/05/23 08:30:41;;;;;;;;;;;18.60;50.50;;;;;;468199;253;2153;-45
2021/05/23 08:32:42;;;;;;;;;;;18.60;50.40;;;;;;460220;259;1161;-45
2021/05/23 08:34:43;;;;;;;;;;;18.60;50.40;;;;;;460346;258;1107;-44
2021/05/23 08:36:44;;;;;;;;;;;18.60;50.50;;;;;;461343;257;1155;-44
2021/05/23 08:38:46;;;;;;;;;;;18.50;50.50;;;;;;461340;258;1086;-45
2021/05/23 08:40:47;;;;;;;;;;;18.50;50.60;;;;;;461102;258;1088;-44
2021/05/23 08:42:48;;;;;;;;;;;18.50;50.60;;;;;;461297;258;1132;-45
2021/05/23 08:44:49;;;;;;;;;;;18.50;50.60;;;;;;461142;258;1141;-44
2021/05/23 08:46:51;;;;;;;;;;;18.50;50.70;;;;;;461561;258;1100;-45
2021/05/23 08:48:52;;;;;;;;;;;18.50;50.50;;;;;;461411;258;1161;-45
2021/05/23 08:50:54;;;;;;;;;;;18.50;50.40;;;;;;461277;258;2145;-44
2021/05/23 08:52:55;;;;;;;;;;;18.50;50.40;;;;;;461289;258;1380;-44
2021/05/23 08:54:56;;;;;;;;;;;18.50;50.50;;;;;;461123;258;1125;-44
2021/05/23 08:56:57;;;;;;;;;;;18.50;50.50;;;;;;461296;258;1085;-45
2021/05/23 08:58:59;;;;;;;;;;;18.50;50.50;;;;;;461518;258;1159;-44
2021/05/23 09:01:00;;;;;;;;;;;18.50;50.50;;;;;;461298;258;1116;-44
2021/05/23 09:03:01;;;;;;;;;;;18.50;50.50;;;;;;461515;258;1137;-45
2021/05/23 09:05:03;;;;;;;;;;;18.70;50.00;;;;;;461062;258;1191;-44
2021/05/23 09:07:04;;;;;;;;;;;19.20;48.70;;;;;;461541;258;1103;-44
2021/05/23 09:09:05;;;;;;;;;;;19.60;47.70;;;;;;461618;258;1084;-45
2021/05/23 09:11:06;;;;;;;;;;;19.90;47.00;;;;;;461346;258;2216;-44
2021/05/23 09:13:08;;;;;;;;;;;20.10;46.50;;;;;;461540;258;1276;-45
2021/05/23 09:15:09;;;;;;;;;;;20.20;46.20;;;;;;461568;258;1060;-45
2021/05/23 09:17:10;;;;;;;;;;;20.30;45.80;;;;;;461117;258;1105;-45
2021/05/23 09:19:12;;;;;;;;;;;20.40;45.70;;;;;;461455;258;1210;-45
2021/05/23 09:21:13;;;;;;;;;;;20.50;45.40;;;;;;461237;258;1359;-44
2021/05/23 09:23:15;;;;;;;;;;;20.60;45.30;;;;;;461520;258;1160;-45
2021/05/23 09:25:16;;;;;;;;;;;20.60;45.20;;;;;;461146;258;1089;-44
2021/05/23 09:27:17;;;;;;;;;;;20.70;45.10;;;;;;460990;258;2394;-45
2021/05/23 09:29:18;;;;;;;;;;;20.70;44.90;;;;;;461141;258;1131;-44
2021/05/23 09:31:19;;;;;;;;;;;20.80;44.90;;;;;;461015;258;2207;-45
2021/05/23 09:33:21;;;;;;;;;;;20.80;44.80;;;;;;461518;258;1205;-45
2021/05/23 09:35:22;;;;;;;;;;;20.90;44.70;;;;;;461123;258;1251;-45
2021/05/23 09:37:23;;;;;;;;;;;20.90;44.60;;;;;;461274;258;1207;-45
2021/05/23 09:39:24;;;;;;;;;;;20.90;44.60;;;;;;461333;258;1064;-44
2021/05/23 09:41:26;;;;;;;;;;;21.00;44.50;;;;;;461117;258;1183;-44
2021/05/23 09:43:27;;;;;;;;;;;21.00;44.40;;;;;;461602;258;1034;-45
2021/05/23 09:45:28;;;;;;;;;;;21.00;44.30;;;;;;461173;258;1109;-45
2021/05/23 09:47:30;;;;;;;;;;;21.10;44.30;;;;;;461092;258;1208;-45
2021/05/23 09:49:31;;;;;;;;;;;21.10;44.20;;;;;;461113;258;1195;-45
2021/05/23 09:51:32;;;;;;;;;;;21.20;44.20;;;;;;461038;258;2196;-45
2021/05/23 09:53:34;;;;;;;;;;;21.20;44.10;;;;;;461145;258;1073;-45
2021/05/23 09:55:35;;;;;;;;;;;21.20;44.00;;;;;;461075;258;2199;-45
2021/05/23 09:57:36;;;;;;;;;;;21.20;44.00;;;;;;461502;258;1177;-45
2021/05/23 09:59:37;;;;;;;;;;;21.30;44.00;;;;;;461208;258;1085;-45
2021/05/23 10:01:38;;;;;;;;;;;21.20;43.90;;;;;;461072;258;1152;-44
2021/05/23 10:03:41;;;;;;;;;;;21.30;43.90;;;;;;461546;258;1239;-45
2021/05/23 10:05:41;;;;;;;;;;;21.30;43.80;;;;;;461155;258;2538;-45
2021/05/23 10:07:42;;;;;;;;;;;21.30;43.80;;;;;;461581;258;1116;-45
2021/05/23 10:09:44;;;;;;;;;;;21.40;43.80;;;;;;461387;258;1049;-44
2021/05/23 10:11:45;;;;;;;;;;;21.40;43.70;;;;;;461329;258;2186;-45
2021/05/23 10:13:46;;;;;;;;;;;21.40;43.70;;;;;;461224;258;1093;-45
2021/05/23 10:15:47;;;;;;;;;;;21.50;43.70;;;;;;461062;258;1084;-44
2021/05/23 10:17:49;;;;;;;;;;;21.50;43.60;;;;;;461000;258;1204;-44
2021/05/23 10:19:50;;;;;;;;;;;21.50;43.60;;;;;;461369;258;1344;-45
2021/05/23 10:21:51;;;;;;;;;;;21.50;43.50;;;;;;461001;258;1236;-45
2021/05/23 10:23:52;;;;;;;;;;;21.50;43.50;;;;;;461130;258;1079;-44
2021/05/23 10:25:54;;;;;;;;;;;21.50;43.50;;;;;;461201;258;1406;-45
2021/05/23 10:27:55;;;;;;;;;;;21.60;43.50;;;;;;461165;258;1280;-45
2021/05/23 10:29:56;;;;;;;;;;;21.60;43.50;;;;;;461183;258;1066;-45
2021/05/23 10:31:58;;;;;;;;;;;21.60;43.40;;;;;;461478;258;2116;-44
2021/05/23 10:33:59;;;;;;;;;;;21.60;43.50;;;;;;461563;258;1147;-45
2021/05/23 10:36:00;;;;;;;;;;;21.60;43.30;;;;;;461239;258;1316;-45
2021/05/23 10:38:02;;;;;;;;;;;21.50;43.50;;;;;;461131;258;1168;-45
2021/05/23 10:40:03;;;;;;;;;;;21.00;44.60;;;;;;461561;258;1068;-45
2021/05/23 10:42:04;;;;;;;;;;;20.60;45.70;;;;;;461209;258;1359;-45
2021/05/23 10:44:05;;;;;;;;;;;20.20;46.50;;;;;;461399;258;1159;-45
2021/05/23 10:46:07;;;;;;;;;;;20.10;47.10;;;;;;461204;258;1500;-44
2021/05/23 10:48:08;;;;;;;;;;;19.90;47.50;;;;;;461073;258;1316;-44
2021/05/23 10:50:09;;;;;;;;;;;19.80;47.80;;;;;;461026;258;2180;-45
2021/05/23 10:52:10;;;;;;;;;;;19.70;48.00;;;;;;460999;258;1285;-45
2021/05/23 10:54:12;;;;;;;;;;;19.50;48.30;;;;;;461190;258;1057;-44
2021/05/23 10:56:13;;;;;;;;;;;19.40;48.50;;;;;;461048;258;1174;-45
2021/05/23 10:58:14;;;;;;;;;;;19.40;48.80;;;;;;461169;258;1089;-45
2021/05/23 11:00:16;;;;;;;;;;;19.40;48.70;;;;;;461364;258;1132;-45
2021/05/23 11:02:17;;;;;;;;;;;19.30;48.90;;;;;;461484;258;2034;-45
2021/05/23 11:04:18;;;;;;;;;;;19.30;49.00;;;;;;461478;258;1150;-44
2021/05/23 11:06:19;;;;;;;;;;;19.20;49.20;;;;;;461316;258;1327;-44
2021/05/23 11:08:21;;;;;;;;;;;19.20;49.30;;;;;;461262;258;1115;-44
2021/05/23 11:10:22;;;;;;;;;;;19.20;49.40;;;;;;461143;258;2200;-44
2021/05/23 11:12:23;;;;;;;;;;;19.10;49.40;;;;;;461065;258;994;-45
2021/05/23 11:14:24;;;;;;;;;;;19.10;49.40;;;;;;461280;258;1062;-45
2021/05/23 11:16:26;;;;;;;;;;;19.10;49.40;;;;;;461456;258;1122;-44
2021/05/23 11:18:27;;;;;;;;;;;19.00;49.40;;;;;;461231;258;1260;-44
2021/05/23 11:20:28;;;;;;;;;;;19.00;49.60;;;;;;461155;258;1186;-44
2021/05/23 11:22:30;;;;;;;;;;;19.00;49.70;;;;;;461111;258;1171;-44
2021/05/23 11:24:31;;;;;;;;;;;18.90;49.80;;;;;;461601;258;1082;-44
2021/05/23 11:26:32;;;;;;;;;;;18.90;49.80;;;;;;461151;258;1285;-44
2021/05/23 11:28:33;;;;;;;;;;;18.90;49.90;;;;;;461214;258;1083;-45
2021/05/23 11:30:35;;;;;;;;;;;18.90;50.00;;;;;;461348;258;2215;-44
2021/05/23 11:32:36;;;;;;;;;;;18.90;49.90;;;;;;461118;258;1310;-44
2021/05/23 11:34:37;;;;;;;;;;;18.90;50.00;;;;;;461074;258;1129;-45
2021/05/23 11:36:39;;;;;;;;;;;18.80;49.90;;;;;;461182;258;1499;-45
2021/05/23 11:38:41;;;;;;;;;;;18.80;50.10;;;;;;461470;258;1068;-45
2021/05/23 11:40:42;;;;;;;;;;;18.80;50.10;;;;;;461453;258;1077;-45
2021/05/23 11:42:43;;;;;;;;;;;18.80;50.10;;;;;;461075;258;1222;-44
2021/05/23 11:44:47;;;;;;;;;;;18.80;50.20;;;;;;461510;258;1131;-45
2021/05/23 11:46:48;;;;;;;;;;;18.70;50.20;;;;;;461316;258;2128;-45
2021/05/23 11:48:47;;;;;;;;;;;18.70;50.20;;;;;;461547;258;2193;-44
2021/05/23 11:50:48;;;;;;;;;;;18.70;50.10;;;;;;461512;258;2141;-44
2021/05/23 11:52:54;;;;;;;;;;;18.80;50.10;;;;;;461191;258;1068;-45
2021/05/23 11:54:51;;;;;;;;;;;18.70;50.20;;;;;;460979;258;1372;-44
2021/05/23 11:56:53;;;;;;;;;;;18.70;50.30;;;;;;461501;258;1071;-44